Time;durP1;ratioP1;P1;durP2;ratioP2;P2;SDS_P1;SDS_P2;PMS_P1;PMS_P2;Temp;Humidity;BMP_temperature;BMP_pressure;BME280_temperature;BME280_humidity;BME280_pressure;Samples;Min_cycle;Max_cycle;Signal;HPM_P1;HPM_P2
2023/06/23 00:00:36;;;;;;;2.50;2.30;;;20.50;99.90;;;;;;4977841;28;20222;-67
2023/06/23 00:03:02;;;;;;;3.00;2.37;;;20.40;99.90;;;;;;4976204;28;20184;-67
2023/06/23 00:05:28;;;;;;;2.20;2.00;;;20.30;99.90;;;;;;4977866;28;20182;-67
2023/06/23 00:07:53;;;;;;;2.23;2.03;;;20.20;99.90;;;;;;4977165;28;20633;-67
2023/06/23 00:10:19;;;;;;;2.57;2.37;;;20.20;99.90;;;;;;4975240;28;20184;-67
2023/06/23 00:12:45;;;;;;;2.00;1.90;;;20.20;99.90;;;;;;4975875;28;20226;-67
2023/06/23 00:15:13;;;;;;;2.30;2.10;;;20.10;99.90;;;;;;4976105;28;20180;-67
2023/06/23 00:17:41;;;;;;;1.97;1.87;;;20.10;99.90;;;;;;4975067;28;20180;-67
2023/06/23 00:20:10;;;;;;;2.20;2.00;;;20.10;99.90;;;;;;4975496;28;20477;-67
2023/06/23 00:22:36;;;;;;;3.30;3.00;;;20.10;99.90;;;;;;4975097;28;20468;-67
2023/06/23 00:25:02;;;;;;;2.20;2.10;;;20.20;99.90;;;;;;4978215;28;20443;-67
2023/06/23 00:27:28;;;;;;;2.97;2.63;;;20.30;99.90;;;;;;4975058;28;20434;-67
2023/06/23 00:29:54;;;;;;;2.80;2.60;;;20.20;99.90;;;;;;4976168;28;22452;-67
2023/06/23 00:32:20;;;;;;;2.50;2.30;;;20.20;99.90;;;;;;4978063;28;20469;-67
2023/06/23 00:34:45;;;;;;;2.00;1.90;;;20.20;99.90;;;;;;4978571;28;20661;-67
2023/06/23 00:37:11;;;;;;;2.47;2.27;;;20.20;99.90;;;;;;4978842;28;20358;-67
2023/06/23 00:39:36;;;;;;;3.17;2.07;;;20.30;99.90;;;;;;4981813;28;20563;-67
2023/06/23 00:42:04;;;;;;;2.70;2.50;;;20.30;99.90;;;;;;4978932;28;20673;-67
2023/06/23 00:44:33;;;;;;;2.50;2.27;;;20.20;99.90;;;;;;4980262;28;20218;-67
2023/06/23 00:46:59;;;;;;;2.70;2.27;;;20.20;99.90;;;;;;4959247;28;20438;-67
2023/06/23 00:49:25;;;;;;;2.47;2.27;;;20.20;99.90;;;;;;4981296;28;20994;-67
2023/06/23 00:51:52;;;;;;;2.47;2.37;;;20.00;99.90;;;;;;4979435;28;20463;-67
2023/06/23 00:54:18;;;;;;;2.97;2.77;;;19.90;99.90;;;;;;4978030;28;20455;-67
2023/06/23 00:56:43;;;;;;;2.27;2.07;;;19.90;99.90;;;;;;4983364;28;20443;-67
2023/06/23 00:59:09;;;;;;;5.13;2.50;;;19.90;99.90;;;;;;4980451;28;20222;-67
2023/06/23 01:01:35;;;;;;;2.53;2.40;;;20.10;99.90;;;;;;4976903;28;20232;-67
2023/06/23 01:04:01;;;;;;;3.03;2.83;;;20.10;99.90;;;;;;4979757;28;20449;-67
2023/06/23 01:06:39;;;;;;;3.60;3.33;;;20.20;99.90;;;;;;4978387;28;20558;-67
2023/06/23 01:09:21;;;;;;;3.60;3.27;;;20.10;99.90;;;;;;4978429;28;20438;-67
2023/06/23 01:12:13;;;;;;;2.97;2.77;;;19.90;99.90;;;;;;4978284;28;20560;-71
2023/06/23 01:15:04;;;;;;;4.20;3.00;;;19.70;99.90;;;;;;4989260;28;20925;-70
2023/06/23 01:17:45;;;;;;;4.63;3.30;;;19.50;99.90;;;;;;4958019;28;20956;-70
2023/06/23 01:20:25;;;;;;;3.07;2.87;;;19.50;99.90;;;;;;4982776;28;20525;-70
2023/06/23 01:23:20;;;;;;;6.20;3.53;;;19.40;99.90;;;;;;4986005;28;20828;-69
2023/06/23 01:26:03;;;;;;;3.80;3.50;;;19.10;99.90;;;;;;4993794;28;20514;-69
2023/06/23 01:28:50;;;;;;;4.03;3.70;;;18.80;99.90;;;;;;4977223;28;20488;-70
2023/06/23 01:31:31;;;;;;;8.33;3.77;;;18.60;99.90;;;;;;4986005;28;20461;-72
2023/06/23 01:34:01;;;;;;;3.30;3.10;;;18.60;99.90;;;;;;4985573;28;20440;-69
2023/06/23 01:36:37;;;;;;;4.33;3.93;;;18.50;99.90;;;;;;4980251;28;20442;-70
2023/06/23 01:39:07;;;;;;;5.00;4.50;;;18.30;99.90;;;;;;4989414;28;20525;-70
2023/06/23 01:41:40;;;;;;;5.10;4.70;;;18.20;99.90;;;;;;4990607;28;20494;-69
2023/06/23 01:44:13;;;;;;;5.20;4.73;;;18.00;99.90;;;;;;4993261;28;20473;-69
2023/06/23 01:46:41;;;;;;;5.10;4.70;;;17.90;99.90;;;;;;4990785;28;20944;-70
2023/06/23 01:49:13;;;;;;;4.47;4.10;;;18.00;99.90;;;;;;4991330;28;20442;-71
2023/06/23 01:51:45;;;;;;;5.87;5.47;;;17.90;99.90;;;;;;5000290;28;20653;-71
2023/06/23 01:54:12;;;;;;;6.23;5.73;;;18.00;99.90;;;;;;4994641;28;20431;-70
2023/06/23 01:56:40;;;;;;;5.40;5.00;;;17.90;99.90;;;;;;4991073;28;20432;-71
2023/06/23 01:59:11;;;;;;;5.23;4.83;;;18.00;99.90;;;;;;4989703;28;21033;-70
2023/06/23 02:01:39;;;;;;;7.27;6.57;;;17.80;99.90;;;;;;4980611;28;20465;-70
2023/06/23 02:04:06;;;;;;;5.57;5.03;;;17.80;99.90;;;;;;4989157;28;20447;-70
2023/06/23 02:06:35;;;;;;;5.77;5.27;;;17.80;99.90;;;;;;4985757;28;20455;-71
2023/06/23 02:09:03;;;;;;;6.10;5.60;;;17.90;99.90;;;;;;4987273;28;20530;-70
2023/06/23 02:11:32;;;;;;;5.60;5.20;;;17.80;99.90;;;;;;4985978;28;20531;-70
2023/06/23 02:13:58;;;;;;;4.60;4.30;;;17.80;99.90;;;;;;4988330;28;20781;-71
2023/06/23 02:16:27;;;;;;;4.90;4.50;;;17.70;99.90;;;;;;4985660;28;20462;-70
2023/06/23 02:18:54;;;;;;;4.00;3.70;;;17.70;99.90;;;;;;4990474;28;20517;-70
2023/06/23 02:21:22;;;;;;;4.97;4.67;;;17.70;99.90;;;;;;4985951;28;20559;-70
2023/06/23 02:23:48;;;;;;;5.13;3.77;;;17.70;99.90;;;;;;4979040;28;20869;-70
2023/06/23 02:26:15;;;;;;;4.23;3.93;;;17.70;99.90;;;;;;4985840;28;21024;-70
2023/06/23 02:28:41;;;;;;;3.40;3.10;;;17.70;99.90;;;;;;4982943;28;20454;-70
2023/06/23 02:31:10;;;;;;;4.70;4.30;;;17.70;99.90;;;;;;4973592;28;20460;-70
2023/06/23 02:33:35;;;;;;;4.57;4.20;;;17.90;99.90;;;;;;4972390;28;20438;-71
2023/06/23 02:36:03;;;;;;;4.70;4.30;;;17.80;99.90;;;;;;4985765;28;20442;-70
2023/06/23 02:38:30;;;;;;;4.73;4.33;;;17.90;99.90;;;;;;4992799;28;20194;-70
2023/06/23 02:40:57;;;;;;;5.13;4.70;;;18.20;99.90;;;;;;4976840;28;20467;-70
2023/06/23 02:43:28;;;;;;;5.57;5.17;;;18.00;99.90;;;;;;4985581;28;20445;-70
2023/06/23 02:45:58;;;;;;;4.53;4.13;;;18.20;99.90;;;;;;4988706;28;21034;-70
2023/06/23 02:48:30;;;;;;;5.43;5.03;;;18.20;99.90;;;;;;4988779;28;20439;-71
2023/06/23 02:50:58;;;;;;;5.97;5.57;;;18.20;99.90;;;;;;4986430;28;20462;-70
2023/06/23 02:53:28;;;;;;;6.63;6.13;;;18.10;99.90;;;;;;4988141;28;20469;-71
2023/06/23 02:56:01;;;;;;;6.80;6.23;;;18.10;99.90;;;;;;4990066;28;20447;-71
2023/06/23 02:58:28;;;;;;;6.63;5.93;;;18.30;99.90;;;;;;4973825;28;20437;-72
2023/06/23 03:00:56;;;;;;;8.57;7.57;;;18.20;99.90;;;;;;4984258;28;20561;-70
2023/06/23 03:03:22;;;;;;;7.40;6.80;;;18.30;99.90;;;;;;4987162;28;20442;-71
2023/06/23 03:05:49;;;;;;;7.90;7.30;;;18.40;99.90;;;;;;4992178;28;20426;-70
2023/06/23 03:08:15;;;;;;;8.70;7.93;;;18.40;99.90;;;;;;4988130;28;20259;-71
2023/06/23 03:10:41;;;;;;;9.13;8.33;;;18.40;99.90;;;;;;4987471;28;20526;-70
2023/06/23 03:13:08;;;;;;;8.50;7.80;;;18.30;99.90;;;;;;4972043;28;20253;-71
2023/06/23 03:15:33;;;;;;;10.00;9.10;;;18.30;99.90;;;;;;4990499;28;20857;-70
2023/06/23 03:18:11;;;;;;;8.27;7.57;;;18.20;99.90;;;;;;4988632;28;20526;-71
2023/06/23 03:20:48;;;;;;;8.50;7.80;;;18.30;99.90;;;;;;4973994;28;20581;-70
2023/06/23 03:23:14;;;;;;;7.73;7.13;;;18.40;99.90;;;;;;4983265;28;20843;-72
2023/06/23 03:25:43;;;;;;;8.47;7.70;;;18.40;99.90;;;;;;4988070;28;20446;-71
2023/06/23 03:28:12;;;;;;;7.97;7.27;;;18.60;99.90;;;;;;4980695;28;20469;-71
2023/06/23 03:30:45;;;;;;;8.20;7.60;;;18.90;99.90;;;;;;4968178;28;20446;-70
2023/06/23 03:33:21;;;;;;;8.83;8.13;;;18.70;99.90;;;;;;4980770;28;20450;-71
2023/06/23 03:35:49;;;;;;;10.30;9.43;;;18.70;99.90;;;;;;4977970;28;20809;-70
2023/06/23 03:38:21;;;;;;;8.30;7.47;;;18.90;99.90;;;;;;4983386;28;20966;-71
2023/06/23 03:40:53;;;;;;;10.20;9.30;;;18.80;99.90;;;;;;4979856;28;20462;-70
2023/06/23 03:43:45;;;;;;;9.50;8.70;;;18.80;99.90;;;;;;4982332;28;20487;-71
2023/06/23 03:46:20;;;;;;;9.43;8.63;;;18.90;99.90;;;;;;4974365;28;20810;-70
2023/06/23 03:48:48;;;;;;;9.57;8.77;;;18.70;99.90;;;;;;4978876;28;20460;-71
2023/06/23 03:51:16;;;;;;;9.03;8.30;;;18.70;99.90;;;;;;4985943;28;20546;-70
2023/06/23 03:53:43;;;;;;;9.30;8.50;;;18.80;99.90;;;;;;4990601;28;20444;-71
2023/06/23 03:56:12;;;;;;;9.97;9.17;;;18.90;99.90;;;;;;4984491;28;20501;-70
2023/06/23 03:58:38;;;;;;;10.10;9.20;;;18.80;99.90;;;;;;4985967;28;20555;-72
2023/06/23 04:01:06;;;;;;;10.70;9.87;;;18.80;99.90;;;;;;4990067;28;21094;-70
2023/06/23 04:03:34;;;;;;;9.80;8.90;;;18.80;99.90;;;;;;4983902;28;20766;-70
2023/06/23 04:06:02;;;;;;;11.93;10.90;;;18.80;99.90;;;;;;4978380;28;20446;-71
2023/06/23 04:08:30;;;;;;;11.20;10.30;;;18.80;99.90;;;;;;4987522;28;20438;-72
2023/06/23 04:10:58;;;;;;;11.70;10.67;;;18.90;99.90;;;;;;4985715;28;20432;-71
2023/06/23 04:13:26;;;;;;;11.40;10.30;;;18.80;99.90;;;;;;4986367;28;20937;-71
2023/06/23 04:15:53;;;;;;;11.80;10.80;;;18.80;99.90;;;;;;4972403;28;20825;-71
2023/06/23 04:18:19;;;;;;;13.87;12.67;;;19.00;99.90;;;;;;4991226;28;20438;-70
2023/06/23 04:20:46;;;;;;;13.13;11.83;;;18.90;99.90;;;;;;4991438;28;20963;-70
2023/06/23 04:23:13;;;;;;;11.90;10.70;;;19.00;99.90;;;;;;4975095;28;20438;-71
2023/06/23 04:25:40;;;;;;;13.17;12.07;;;18.90;99.90;;;;;;4989783;28;20550;-71
2023/06/23 04:28:11;;;;;;;13.87;12.70;;;19.00;99.90;;;;;;4990097;28;20789;-70
2023/06/23 04:30:37;;;;;;;12.70;11.63;;;18.90;99.90;;;;;;4989440;28;20449;-71
2023/06/23 04:33:03;;;;;;;13.17;11.97;;;19.10;99.90;;;;;;4984791;28;20439;-70
2023/06/23 04:35:29;;;;;;;13.20;12.20;;;18.90;99.90;;;;;;4990919;28;20508;-70
2023/06/23 04:38:01;;;;;;;15.90;14.50;;;19.00;99.90;;;;;;4989946;28;20182;-70
2023/06/23 04:40:51;;;;;;;12.47;11.43;;;19.00;99.90;;;;;;4991147;28;20207;-70
2023/06/23 04:43:31;;;;;;;13.33;12.03;;;19.00;99.90;;;;;;4991871;28;20447;-71
2023/06/23 04:46:07;;;;;;;11.30;10.40;;;19.00;99.90;;;;;;4975674;28;20445;-71
2023/06/23 04:48:35;;;;;;;11.50;10.50;;;19.10;99.90;;;;;;4987534;28;20888;-70
2023/06/23 04:51:05;;;;;;;14.77;13.37;;;19.20;99.90;;;;;;4987012;28;20469;-70
2023/06/23 04:53:37;;;;;;;14.70;13.50;;;19.20;99.90;;;;;;4990468;28;20513;-70
2023/06/23 04:56:05;;;;;;;13.40;12.10;;;19.10;99.90;;;;;;4982166;28;20545;-70
2023/06/23 04:58:35;;;;;;;14.90;13.57;;;19.10;99.90;;;;;;4985048;28;20438;-70
2023/06/23 05:01:03;;;;;;;13.53;12.33;;;19.00;99.90;;;;;;4988269;28;20561;-70
2023/06/23 05:03:30;;;;;;;15.87;14.37;;;19.20;99.90;;;;;;4990845;28;20525;-70
2023/06/23 05:05:57;;;;;;;15.80;14.17;;;19.20;99.90;;;;;;4990894;28;20890;-70
2023/06/23 05:08:25;;;;;;;14.43;13.23;;;19.10;99.90;;;;;;4989346;28;20462;-71
2023/06/23 05:10:52;;;;;;;16.37;14.70;;;19.10;99.90;;;;;;4983850;28;21516;-70
2023/06/23 05:13:19;;;;;;;18.07;16.40;;;19.30;99.90;;;;;;5013295;23;20878;-69
2023/06/23 05:15:47;;;;;;;17.97;16.30;;;19.20;99.90;;;;;;4987227;28;20493;-70
2023/06/23 05:18:15;;;;;;;17.07;15.63;;;19.10;99.90;;;;;;5010804;28;20449;-70
2023/06/23 05:20:42;;;;;;;17.73;16.13;;;19.30;99.90;;;;;;5010420;28;20476;-70
2023/06/23 05:23:10;;;;;;;17.87;16.27;;;19.40;99.90;;;;;;5010908;28;20526;-70
2023/06/23 05:25:37;;;;;;;18.47;16.87;;;19.50;99.90;;;;;;5010062;28;20433;-71
2023/06/23 05:28:05;;;;;;;18.07;16.37;;;19.40;99.90;;;;;;4992766;28;20430;-70
2023/06/23 05:30:34;;;;;;;17.87;16.27;;;19.50;99.90;;;;;;5011882;28;20511;-70
2023/06/23 05:33:02;;;;;;;18.57;16.67;;;19.70;99.90;;;;;;5013054;28;20457;-70
2023/06/23 05:35:30;;;;;;;19.43;17.47;;;19.80;99.90;;;;;;4995277;28;20441;-69
2023/06/23 05:37:57;;;;;;;21.60;19.50;;;19.70;99.90;;;;;;5009560;28;20437;-70
2023/06/23 05:40:22;;;;;;;15.17;13.67;;;19.70;99.90;;;;;;4987456;28;20492;-70
2023/06/23 05:42:48;;;;;;;19.03;17.33;;;19.70;99.90;;;;;;5012163;28;20544;-69
2023/06/23 05:45:14;;;;;;;21.87;19.97;;;19.90;99.90;;;;;;4991391;28;20175;-69
2023/06/23 05:48:17;;;;;;;20.03;17.97;;;19.90;99.90;;;;;;5005566;28;20187;-70
2023/06/23 05:50:43;;;;;;;20.40;18.60;;;19.80;99.90;;;;;;5012384;28;20186;-70
2023/06/23 05:53:15;;;;;;;21.63;19.57;;;19.80;99.90;;;;;;5006600;28;20546;-70
2023/06/23 05:55:45;;;;;;;23.07;20.97;;;19.60;99.90;;;;;;5006412;28;20441;-70
2023/06/23 05:58:13;;;;;;;21.00;19.00;;;19.60;99.90;;;;;;5001721;28;20434;-70
2023/06/23 06:00:45;;;;;;;23.87;21.73;;;19.60;99.90;;;;;;5003802;28;20457;-68
2023/06/23 06:03:14;;;;;;;21.77;19.77;;;19.60;99.90;;;;;;5006788;28;20460;-67
2023/06/23 06:05:46;;;;;;;24.07;21.67;;;19.70;99.90;;;;;;5009673;28;20429;-67
2023/06/23 06:08:12;;;;;;;26.53;21.60;;;19.60;99.90;;;;;;5004742;28;20437;-67
2023/06/23 06:10:39;;;;;;;26.37;23.60;;;19.60;99.90;;;;;;4996756;28;20453;-66
2023/06/23 06:13:06;;;;;;;21.50;19.40;;;19.60;99.90;;;;;;5002876;28;20488;-67
2023/06/23 06:15:33;;;;;;;25.00;22.57;;;19.60;99.90;;;;;;5009934;28;20459;-67
2023/06/23 06:18:04;;;;;;;24.27;21.80;;;19.70;99.90;;;;;;5011187;28;20433;-67
2023/06/23 06:20:32;;;;;;;21.17;19.17;;;19.70;99.90;;;;;;5007101;28;20564;-67
2023/06/23 06:22:59;;;;;;;20.50;18.40;;;19.70;99.90;;;;;;5011680;28;20495;-67
2023/06/23 06:25:26;;;;;;;20.70;18.90;;;19.80;99.90;;;;;;5013974;28;20492;-67
2023/06/23 06:27:53;;;;;;;23.40;21.20;;;19.90;99.90;;;;;;5010607;28;20465;-70
2023/06/23 06:30:21;;;;;;;19.13;16.77;;;20.10;99.90;;;;;;5005690;28;20437;-70
2023/06/23 06:32:49;;;;;;;21.50;19.37;;;20.40;99.90;;;;;;5004857;28;20462;-70
2023/06/23 06:35:15;;;;;;;18.90;17.20;;;20.60;99.90;;;;;;5000399;28;20818;-70
2023/06/23 06:37:47;;;;;;;19.67;17.87;;;20.90;99.90;;;;;;5000972;28;20789;-70
2023/06/23 06:40:15;;;;;;;20.10;18.13;;;20.80;99.90;;;;;;5001071;28;20557;-70
2023/06/23 06:42:41;;;;;;;21.80;19.80;;;20.90;99.90;;;;;;5004511;28;20464;-70
2023/06/23 06:45:07;;;;;;;21.57;19.27;;;21.00;99.90;;;;;;5009137;28;20438;-70
2023/06/23 06:47:40;;;;;;;20.43;18.37;;;21.20;99.90;;;;;;5008856;28;20868;-70
2023/06/23 06:50:07;;;;;;;20.03;17.93;;;21.80;99.90;;;;;;5007942;28;20504;-70
2023/06/23 06:52:34;;;;;;;22.23;20.13;;;22.50;99.90;;;;;;5002336;28;20458;-69
2023/06/23 06:55:00;;;;;;;18.77;17.03;;;22.60;99.90;;;;;;5008815;28;20451;-70
2023/06/23 06:57:26;;;;;;;19.47;17.63;;;22.50;99.90;;;;;;5010201;28;20530;-69
2023/06/23 06:59:52;;;;;;;19.03;17.27;;;22.40;99.90;;;;;;5007785;28;21312;-69
2023/06/23 07:02:18;;;;;;;19.83;17.77;;;22.40;99.90;;;;;;5001697;28;20196;-69
2023/06/23 07:04:44;;;;;;;20.23;18.10;;;22.50;99.90;;;;;;5006509;28;20180;-69
2023/06/23 07:07:13;;;;;;;19.10;17.50;;;22.30;99.90;;;;;;5002892;28;20179;-68
2023/06/23 07:09:39;;;;;;;19.07;17.27;;;22.20;99.90;;;;;;5000919;28;20444;-68
2023/06/23 07:12:06;;;;;;;19.63;17.70;;;22.50;99.90;;;;;;5002123;28;20481;-69
2023/06/23 07:14:32;;;;;;;19.53;16.80;;;22.60;99.90;;;;;;5010528;28;20240;-69
2023/06/23 07:16:57;;;;;;;16.47;14.97;;;22.50;99.90;;;;;;5006071;28;20446;-69
2023/06/23 07:19:23;;;;;;;19.77;17.90;;;22.30;99.90;;;;;;5005074;28;20182;-69
2023/06/23 07:21:48;;;;;;;19.23;17.17;;;21.90;99.90;;;;;;5004204;28;20199;-69
2023/06/23 07:24:14;;;;;;;20.00;18.10;;;21.70;99.90;;;;;;5010783;28;20548;-69
2023/06/23 07:26:40;;;;;;;18.40;16.60;;;21.50;99.90;;;;;;5004098;28;20190;-69
2023/06/23 07:29:06;;;;;;;17.70;16.10;;;21.40;99.90;;;;;;5008021;28;20513;-69
2023/06/23 07:31:33;;;;;;;18.17;16.57;;;21.40;99.90;;;;;;5008243;28;20472;-68
2023/06/23 07:33:58;;;;;;;19.20;17.20;;;21.40;99.90;;;;;;5008137;28;20206;-69
2023/06/23 07:36:24;;;;;;;20.37;15.50;;;21.50;99.90;;;;;;5006526;28;20938;-69
2023/06/23 07:38:49;;;;;;;19.13;17.30;;;21.50;99.90;;;;;;5009565;28;20182;-68
2023/06/23 07:41:15;;;;;;;18.00;16.30;;;21.60;99.90;;;;;;5007843;28;20648;-69
2023/06/23 07:43:44;;;;;;;16.10;14.63;;;21.90;99.90;;;;;;5004003;28;20217;-69
2023/06/23 07:46:10;;;;;;;16.37;14.67;;;22.00;99.90;;;;;;5004756;28;20593;-69
2023/06/23 07:48:35;;;;;;;16.60;15.00;;;22.20;99.90;;;;;;5007431;28;20434;-69
2023/06/23 07:51:02;;;;;;;17.30;15.90;;;22.40;99.90;;;;;;5001122;28;20182;-69
2023/06/23 07:53:27;;;;;;;18.20;16.50;;;22.80;99.90;;;;;;5004266;28;20579;-69
2023/06/23 07:55:53;;;;;;;15.40;14.10;;;23.20;99.90;;;;;;5009383;28;20438;-68
2023/06/23 07:58:18;;;;;;;14.60;13.23;;;23.40;99.90;;;;;;5010132;28;20179;-69
2023/06/23 08:00:44;;;;;;;13.87;12.47;;;23.60;99.90;;;;;;4998643;28;20203;-69
2023/06/23 08:03:09;;;;;;;14.00;12.80;;;23.70;99.90;;;;;;5009012;28;20202;-69
2023/06/23 08:05:36;;;;;;;13.47;12.27;;;23.60;99.90;;;;;;5010260;28;20190;-68
2023/06/23 08:08:01;;;;;;;14.80;13.30;;;23.30;99.90;;;;;;5004522;28;20175;-69
2023/06/23 08:10:27;;;;;;;12.70;11.60;;;23.20;99.90;;;;;;5000318;28;20442;-70
2023/06/23 08:12:52;;;;;;;14.40;13.00;;;23.30;99.90;;;;;;5006223;28;20293;-70
2023/06/23 08:15:18;;;;;;;13.03;11.70;;;23.20;99.90;;;;;;5009299;28;20244;-70
2023/06/23 08:17:43;;;;;;;13.17;12.07;;;23.30;99.90;;;;;;5002173;28;20671;-69
2023/06/23 08:20:09;;;;;;;13.07;11.87;;;23.10;99.90;;;;;;4997129;28;20187;-69
2023/06/23 08:22:38;;;;;;;12.33;11.23;;;22.80;99.90;;;;;;4992357;28;20949;-69
2023/06/23 08:25:04;;;;;;;11.37;10.20;;;23.00;99.90;;;;;;4998005;28;20985;-69
2023/06/23 08:27:29;;;;;;;10.97;9.90;;;23.40;99.90;;;;;;5003675;28;20425;-70
2023/06/23 08:29:55;;;;;;;12.20;9.13;;;23.50;99.90;;;;;;4993992;28;20795;-70
2023/06/23 08:32:21;;;;;;;12.63;11.33;;;23.50;99.90;;;;;;5011793;28;20199;-70
2023/06/23 08:34:46;;;;;;;11.90;10.83;;;23.10;99.90;;;;;;5004439;28;20183;-69
2023/06/23 08:37:12;;;;;;;12.40;11.40;;;23.10;99.90;;;;;;5000297;28;20176;-69
2023/06/23 08:39:37;;;;;;;12.00;10.83;;;22.90;99.90;;;;;;4991783;28;20226;-70
2023/06/23 08:42:03;;;;;;;12.97;11.70;;;22.90;99.90;;;;;;4974616;28;20192;-70
2023/06/23 08:44:31;;;;;;;15.00;11.93;;;22.80;99.90;;;;;;4994856;28;20271;-69
2023/06/23 08:47:01;;;;;;;11.27;10.10;;;22.60;99.90;;;;;;4981457;28;20184;-69
2023/06/23 08:49:30;;;;;;;11.40;10.43;;;22.70;99.90;;;;;;5004463;28;20429;-70
2023/06/23 08:51:56;;;;;;;11.27;10.27;;;22.90;99.90;;;;;;5002167;28;20446;-69
2023/06/23 08:54:21;;;;;;;11.30;10.27;;;22.60;99.90;;;;;;5007006;28;20855;-70
2023/06/23 08:56:47;;;;;;;13.57;10.77;;;22.50;99.90;;;;;;5002766;28;20465;-69
2023/06/23 08:59:13;;;;;;;11.60;10.53;;;22.30;99.90;;;;;;4997039;28;20619;-69
2023/06/23 09:01:38;;;;;;;11.17;10.07;;;22.40;99.90;;;;;;5006171;28;20752;-69
2023/06/23 09:04:04;;;;;;;12.53;11.10;;;23.10;99.90;;;;;;5002834;28;20175;-69
2023/06/23 09:06:29;;;;;;;16.50;12.10;;;24.00;99.90;;;;;;5003733;28;20775;-71
2023/06/23 09:08:56;;;;;;;10.50;9.60;;;24.60;99.90;;;;;;5014516;28;20167;-70
2023/06/23 09:11:23;;;;;;;11.73;10.80;;;25.30;99.90;;;;;;5014698;28;20194;-71
2023/06/23 09:13:51;;;;;;;13.00;11.17;;;25.80;99.90;;;;;;5010850;28;20521;-70
2023/06/23 09:16:18;;;;;;;12.10;10.83;;;26.20;99.90;;;;;;5006525;28;20537;-70
2023/06/23 09:18:46;;;;;;;11.50;10.40;;;26.20;99.90;;;;;;5014367;28;20521;-70
2023/06/23 09:21:12;;;;;;;11.73;10.53;;;25.80;99.90;;;;;;5014215;28;20500;-70
2023/06/23 09:23:38;;;;;;;10.70;9.70;;;26.00;99.90;;;;;;5011615;28;20434;-70
2023/06/23 09:26:06;;;;;;;11.00;10.07;;;26.30;99.90;;;;;;5003060;28;20168;-70
2023/06/23 09:28:36;;;;;;;11.70;10.43;;;26.60;98.50;;;;;;4977097;28;20484;-70
2023/06/23 09:31:15;;;;;;;11.50;10.50;;;26.70;97.70;;;;;;4994991;28;20415;-70
2023/06/23 09:33:49;;;;;;;9.93;9.10;;;26.70;96.80;;;;;;4995339;28;20438;-71
2023/06/23 09:36:15;;;;;;;10.20;9.20;;;26.40;97.00;;;;;;5002767;28;20423;-70
2023/06/23 09:38:42;;;;;;;11.53;10.53;;;25.80;98.30;;;;;;4994529;28;20930;-70
2023/06/23 09:41:16;;;;;;;11.17;10.20;;;25.10;99.50;;;;;;4994301;28;20198;-71
2023/06/23 09:43:43;;;;;;;11.33;10.43;;;25.30;99.90;;;;;;4997255;28;20946;-71
2023/06/23 09:46:15;;;;;;;9.30;8.50;;;25.40;99.60;;;;;;5005834;28;20421;-71
2023/06/23 09:48:45;;;;;;;9.20;8.37;;;26.10;98.40;;;;;;5013665;28;21111;-71
2023/06/23 09:51:11;;;;;;;10.20;9.23;;;26.70;95.40;;;;;;5013354;28;20482;-71
2023/06/23 09:53:42;;;;;;;9.17;8.40;;;26.90;94.10;;;;;;5012873;28;20481;-71
2023/06/23 09:56:14;;;;;;;9.00;8.30;;;27.30;94.10;;;;;;5005749;28;20513;-71
2023/06/23 09:58:41;;;;;;;9.40;8.50;;;27.60;92.40;;;;;;4995037;28;20430;-70
2023/06/23 10:01:09;;;;;;;10.10;9.17;;;27.50;91.90;;;;;;4994062;28;20565;-70
2023/06/23 10:03:43;;;;;;;8.50;7.70;;;26.70;92.40;;;;;;4995659;28;20470;-71
2023/06/23 10:06:19;;;;;;;8.50;7.80;;;27.20;91.00;;;;;;5002289;28;20436;-71
2023/06/23 10:08:44;;;;;;;8.30;7.70;;;27.90;88.40;;;;;;5001492;28;20422;-70
2023/06/23 10:11:10;;;;;;;8.00;7.30;;;28.60;86.20;;;;;;4993355;28;20879;-70
2023/06/23 10:13:36;;;;;;;9.23;8.43;;;28.80;82.70;;;;;;4994043;28;20187;-71
2023/06/23 10:16:02;;;;;;;9.00;8.30;;;29.20;80.50;;;;;;5007307;28;20189;-71
2023/06/23 10:18:28;;;;;;;7.93;7.33;;;29.40;79.00;;;;;;4986571;28;20461;-70
2023/06/23 10:20:54;;;;;;;9.03;8.40;;;29.50;78.30;;;;;;4993576;28;20530;-70
2023/06/23 10:23:23;;;;;;;7.83;7.23;;;30.00;77.80;;;;;;4993765;28;20543;-71
2023/06/23 10:25:54;;;;;;;8.47;7.77;;;29.80;78.10;;;;;;5003370;28;20179;-71
2023/06/23 10:28:22;;;;;;;10.93;10.13;;;30.00;75.00;;;;;;5003303;28;20529;-71
2023/06/23 10:30:48;;;;;;;10.90;8.63;;;30.50;72.80;;;;;;4993458;28;20418;-71
2023/06/23 10:33:19;;;;;;;8.90;8.20;;;29.80;73.90;;;;;;4993514;28;21021;-71
2023/06/23 10:35:47;;;;;;;8.20;7.60;;;30.70;69.50;;;;;;5002286;28;20438;-71
2023/06/23 10:38:17;;;;;;;8.57;7.87;;;31.10;65.60;;;;;;4997855;28;20521;-71
2023/06/23 10:40:49;;;;;;;7.03;6.53;;;30.70;66.20;;;;;;4993479;28;20459;-70
2023/06/23 10:43:15;;;;;;;8.70;7.93;;;30.20;68.00;;;;;;4993460;28;20446;-70
2023/06/23 10:45:42;;;;;;;8.30;7.70;;;28.70;70.00;;;;;;5002845;28;20974;-70
2023/06/23 10:48:08;;;;;;;8.30;7.60;;;27.90;73.40;;;;;;5004713;28;20429;-70
2023/06/23 10:50:34;;;;;;;7.80;7.10;;;27.20;76.40;;;;;;4994576;28;20427;-70
2023/06/23 10:53:10;;;;;;;11.23;9.00;;;27.60;77.30;;;;;;4992831;28;20199;-71
2023/06/23 10:55:41;;;;;;;10.13;9.17;;;28.70;73.50;;;;;;5000372;28;20445;-71
2023/06/23 10:58:17;;;;;;;8.43;7.83;;;29.50;71.50;;;;;;4997996;28;20453;-70
2023/06/23 11:01:00;;;;;;;9.07;8.17;;;30.90;68.90;;;;;;4993328;28;20459;-69
2023/06/23 11:03:31;;;;;;;7.70;6.90;;;32.30;61.80;;;;;;4992888;28;20437;-68
2023/06/23 11:05:58;;;;;;;9.50;8.70;;;30.90;61.30;;;;;;4999968;28;20525;-68
2023/06/23 11:08:35;;;;;;;8.90;8.03;;;28.80;66.30;;;;;;4996069;28;20446;-69
2023/06/23 11:11:10;;;;;;;9.10;8.20;;;28.10;68.60;;;;;;4993136;28;20426;-70
2023/06/23 11:13:46;;;;;;;7.00;6.50;;;27.90;70.30;;;;;;5022239;23;20473;-71
2023/06/23 11:16:26;;;;;;;9.30;8.60;;;27.80;71.00;;;;;;4997053;28;20960;-68
2023/06/23 11:18:53;;;;;;;7.83;7.23;;;27.60;72.00;;;;;;4998663;28;20454;-67
2023/06/23 11:21:35;;;;;;;7.80;7.20;;;28.20;72.30;;;;;;5000304;28;20463;-70
2023/06/23 11:24:11;;;;;;;9.37;8.70;;;29.10;69.00;;;;;;4983096;28;20435;-68
2023/06/23 11:26:57;;;;;;;7.27;6.67;;;28.50;67.80;;;;;;4983387;28;20516;-71
2023/06/23 11:29:23;;;;;;;7.17;6.67;;;27.50;69.40;;;;;;4972185;28;20458;-70
2023/06/23 11:32:06;;;;;;;6.07;5.60;;;27.20;71.80;;;;;;4987261;28;20446;-71
2023/06/23 11:35:10;;;;;;;8.87;7.40;;;28.40;71.50;;;;;;4990481;28;20796;-71
2023/06/23 11:37:38;;;;;;;7.30;6.70;;;29.50;68.80;;;;;;4932548;29;20440;-71
2023/06/23 11:40:05;;;;;;;7.63;6.97;;;30.90;65.40;;;;;;4916201;29;20531;-71
2023/06/23 11:42:32;;;;;;;9.07;8.23;;;31.80;61.50;;;;;;4952447;28;20952;-71
2023/06/23 11:44:57;;;;;;;7.67;7.17;;;32.20;59.70;;;;;;4976791;28;20443;-71
2023/06/23 11:47:25;;;;;;;7.70;6.87;;;32.20;58.30;;;;;;4980534;28;20188;-71
2023/06/23 11:49:51;;;;;;;7.40;6.80;;;30.10;58.40;;;;;;4980512;28;20176;-71
2023/06/23 11:52:17;;;;;;;6.77;6.37;;;28.90;62.50;;;;;;4972998;28;20462;-68
2023/06/23 11:54:45;;;;;;;6.90;6.40;;;28.10;64.10;;;;;;4973023;28;20499;-71
2023/06/23 11:57:11;;;;;;;8.40;7.57;;;27.60;66.80;;;;;;4979329;28;20777;-68
2023/06/23 11:59:37;;;;;;;7.30;6.70;;;26.90;69.40;;;;;;4986339;28;20533;-70
2023/06/23 12:02:04;;;;;;;8.10;7.50;;;27.50;70.60;;;;;;4986625;28;20207;-67
2023/06/23 12:04:33;;;;;;;8.90;8.20;;;27.60;70.90;;;;;;4990194;28;20419;-67
2023/06/23 12:06:59;;;;;;;8.07;7.37;;;29.60;68.10;;;;;;4986730;28;20470;-68
2023/06/23 12:09:26;;;;;;;8.40;7.50;;;31.40;60.80;;;;;;4980592;28;20933;-67
2023/06/23 12:11:56;;;;;;;7.67;7.03;;;32.00;59.10;;;;;;4972610;28;20733;-68
2023/06/23 12:14:35;;;;;;;7.40;6.87;;;31.40;58.60;;;;;;4972795;28;20591;-67
2023/06/23 12:17:08;;;;;;;8.90;8.10;;;32.30;58.30;;;;;;4972925;28;20447;-68
2023/06/23 12:19:35;;;;;;;6.80;6.40;;;32.10;57.90;;;;;;4978301;28;20442;-68
2023/06/23 12:22:01;;;;;;;7.00;6.50;;;30.70;57.40;;;;;;4979186;28;20479;-67
2023/06/23 12:24:30;;;;;;;6.30;5.70;;;29.90;58.90;;;;;;4972960;28;20830;-67
2023/06/23 12:26:57;;;;;;;5.93;5.53;;;29.00;59.50;;;;;;4972631;28;20852;-67
2023/06/23 12:29:22;;;;;;;7.70;7.17;;;28.20;61.20;;;;;;4972609;28;20419;-67
2023/06/23 12:31:58;;;;;;;7.07;6.53;;;27.60;63.20;;;;;;4984595;28;20514;-68
2023/06/23 12:34:42;;;;;;;7.17;6.47;;;26.90;65.30;;;;;;4987184;28;20171;-68
2023/06/23 12:37:13;;;;;;;6.73;6.23;;;26.30;67.50;;;;;;4976350;28;20427;-67
2023/06/23 12:39:38;;;;;;;7.80;7.10;;;26.40;69.20;;;;;;4976014;28;20424;-70
2023/06/23 12:42:07;;;;;;;7.30;6.80;;;27.70;67.30;;;;;;4978046;28;20496;-67
2023/06/23 12:44:33;;;;;;;7.30;6.73;;;29.40;64.50;;;;;;4984030;28;20204;-67
2023/06/23 12:47:01;;;;;;;6.43;5.93;;;31.50;59.60;;;;;;4976270;28;20426;-68